Time;durP1;ratioP1;P1;durP2;ratioP2;P2;SDS_P1;SDS_P2;PMS_P1;PMS_P2;Temp;Humidity;BMP_temperature;BMP_pressure;BME280_temperature;BME280_humidity;BME280_pressure;Samples;Min_cycle;Max_cycle;Signal;HPM_P1;HPM_P2
2020/12/29 00:00:54;;;;;;;29.95;12.10;;;4.40;99.90;;;;;;5051286;28;20189;-63
2020/12/29 00:03:20;;;;;;;31.25;13.57;;;4.40;99.90;;;;;;5031778;28;20184;-64
2020/12/29 00:05:47;;;;;;;30.95;13.43;;;4.50;99.90;;;;;;5052131;28;20182;-64
2020/12/29 00:08:13;;;;;;;32.53;13.35;;;4.50;99.90;;;;;;5052075;28;20190;-64
2020/12/29 00:10:40;;;;;;;28.85;13.27;;;4.40;99.90;;;;;;5052023;28;20174;-64
2020/12/29 00:13:06;;;;;;;31.90;12.82;;;4.40;99.90;;;;;;5051071;28;20186;-64
2020/12/29 00:15:33;;;;;;;28.90;13.30;;;4.40;99.90;;;;;;5050494;28;20182;-64
2020/12/29 00:17:59;;;;;;;34.95;14.02;;;4.40;99.90;;;;;;5051026;28;20222;-64
2020/12/29 00:20:25;;;;;;;33.83;12.82;;;4.40;99.90;;;;;;5050700;28;20186;-64
2020/12/29 00:22:51;;;;;;;27.33;12.27;;;4.40;99.90;;;;;;5051804;28;20531;-63
2020/12/29 00:25:18;;;;;;;38.22;12.93;;;4.40;99.90;;;;;;5051180;28;20229;-63
2020/12/29 00:27:45;;;;;;;28.75;13.27;;;4.40;99.90;;;;;;5050882;28;20183;-64
2020/12/29 00:30:11;;;;;;;26.90;13.32;;;4.30;99.90;;;;;;5051265;28;20537;-63
2020/12/29 00:32:37;;;;;;;27.65;12.90;;;4.30;99.90;;;;;;5051269;28;20183;-63
2020/12/29 00:35:04;;;;;;;27.73;12.85;;;4.40;99.90;;;;;;5049046;28;20202;-64
2020/12/29 00:37:30;;;;;;;28.75;12.75;;;4.40;99.90;;;;;;5051436;28;20655;-64
2020/12/29 00:39:56;;;;;;;27.27;13.48;;;4.40;99.90;;;;;;5050816;28;20569;-64
2020/12/29 00:42:22;;;;;;;29.05;13.43;;;4.30;99.90;;;;;;5049372;28;20559;-64
2020/12/29 00:44:48;;;;;;;27.27;13.43;;;4.30;99.90;;;;;;5051246;28;20185;-64
2020/12/29 00:47:15;;;;;;;30.95;12.95;;;4.30;99.90;;;;;;5051430;28;20194;-64
2020/12/29 00:49:41;;;;;;;27.60;12.40;;;4.30;99.90;;;;;;5050089;28;20250;-64
2020/12/29 00:52:07;;;;;;;31.67;14.05;;;4.40;99.90;;;;;;5051148;28;20175;-64
2020/12/29 00:54:33;;;;;;;31.27;13.70;;;4.30;99.90;;;;;;5051216;28;20175;-64
2020/12/29 00:56:59;;;;;;;29.85;14.50;;;4.40;99.90;;;;;;5050495;28;20203;-64
2020/12/29 00:59:25;;;;;;;26.13;12.95;;;4.30;99.90;;;;;;5050954;28;20178;-64
2020/12/29 01:01:55;;;;;;;28.08;13.00;;;4.30;99.90;;;;;;5050490;28;20178;-64
2020/12/29 01:04:22;;;;;;;31.35;14.27;;;4.30;99.90;;;;;;5044249;28;20662;-64
2020/12/29 01:06:48;;;;;;;26.60;13.80;;;4.40;99.90;;;;;;5049454;28;20512;-64
2020/12/29 01:09:14;;;;;;;32.38;13.50;;;4.30;99.90;;;;;;5051677;28;20650;-64
2020/12/29 01:11:41;;;;;;;34.30;14.05;;;4.30;99.90;;;;;;5051068;28;20623;-64
2020/12/29 01:14:07;;;;;;;28.67;14.35;;;4.40;99.90;;;;;;5050532;28;20187;-64
2020/12/29 01:16:33;;;;;;;36.08;15.45;;;4.40;99.90;;;;;;5049928;28;20572;-63
2020/12/29 01:18:59;;;;;;;31.88;14.48;;;4.40;99.90;;;;;;5050708;28;20530;-64
2020/12/29 01:21:26;;;;;;;34.88;14.43;;;4.40;99.90;;;;;;5050827;28;20178;-64
2020/12/29 01:23:52;;;;;;;33.90;14.68;;;4.40;99.90;;;;;;5049904;28;20219;-64
2020/12/29 01:26:25;;;;;;;43.28;15.07;;;4.40;99.90;;;;;;5051051;28;20182;-64
2020/12/29 01:28:51;;;;;;;30.50;13.90;;;4.30;99.90;;;;;;5051088;28;20174;-64
2020/12/29 01:31:30;;;;;;;38.15;15.55;;;4.40;99.90;;;;;;5050564;28;20210;-64
2020/12/29 01:33:57;;;;;;;36.97;15.73;;;4.40;99.90;;;;;;5054486;28;20174;-64
2020/12/29 01:36:23;;;;;;;34.75;15.38;;;4.40;99.90;;;;;;5053769;28;20682;-64
2020/12/29 01:38:50;;;;;;;31.90;14.43;;;4.40;99.90;;;;;;5054830;28;20228;-64
2020/12/29 01:41:18;;;;;;;40.15;15.65;;;4.40;99.90;;;;;;5054544;28;20170;-64
2020/12/29 01:43:44;;;;;;;31.73;15.05;;;4.40;99.90;;;;;;5054128;28;20187;-64
2020/12/29 01:46:10;;;;;;;32.22;15.07;;;4.40;99.90;;;;;;5054293;28;20533;-64
2020/12/29 01:48:36;;;;;;;31.58;14.82;;;4.40;99.90;;;;;;5054988;28;20177;-64
2020/12/29 01:51:03;;;;;;;38.70;16.15;;;4.40;99.90;;;;;;5052427;28;20188;-64
2020/12/29 01:53:29;;;;;;;33.00;14.88;;;4.40;99.90;;;;;;5054320;28;20201;-64
2020/12/29 01:55:55;;;;;;;37.03;16.40;;;4.40;99.90;;;;;;5054011;28;20506;-64
2020/12/29 01:58:21;;;;;;;34.17;15.18;;;4.50;99.90;;;;;;5052864;28;20234;-64
2020/12/29 02:00:48;;;;;;;34.55;16.27;;;4.50;99.90;;;;;;5053403;28;20178;-63
2020/12/29 02:03:14;;;;;;;35.17;15.48;;;4.40;99.90;;;;;;5052341;28;20174;-64
2020/12/29 02:05:41;;;;;;;36.88;16.23;;;4.50;99.90;;;;;;5053708;28;20175;-64
2020/12/29 02:08:08;;;;;;;33.33;15.25;;;4.40;99.90;;;;;;5054153;28;20187;-64
2020/12/29 02:10:34;;;;;;;34.38;15.10;;;4.50;99.90;;;;;;5054282;28;20619;-64
2020/12/29 02:13:00;;;;;;;37.33;16.05;;;4.50;99.90;;;;;;5053633;28;20183;-63
2020/12/29 02:15:26;;;;;;;38.08;15.57;;;4.50;99.90;;;;;;5053785;28;20170;-64
2020/12/29 02:17:53;;;;;;;37.13;15.55;;;4.50;99.90;;;;;;5053507;28;20198;-64
2020/12/29 02:20:19;;;;;;;31.92;14.98;;;4.50;99.90;;;;;;5052279;28;20191;-64
2020/12/29 02:22:45;;;;;;;37.85;16.48;;;4.40;99.90;;;;;;5053506;28;20178;-64
2020/12/29 02:25:11;;;;;;;33.70;14.48;;;4.40;99.90;;;;;;5052184;28;20214;-64
2020/12/29 02:27:48;;;;;;;35.42;15.27;;;4.40;99.90;;;;;;5053916;28;20207;-64
2020/12/29 02:30:15;;;;;;;30.75;13.68;;;4.40;99.90;;;;;;5053122;28;20512;-64
2020/12/29 02:32:41;;;;;;;37.85;15.15;;;4.40;99.90;;;;;;5053725;28;20183;-64
2020/12/29 02:35:08;;;;;;;33.13;15.45;;;4.40;99.90;;;;;;5052669;28;20207;-64
2020/12/29 02:37:34;;;;;;;32.75;15.55;;;4.40;99.90;;;;;;5053235;28;20210;-64
2020/12/29 02:40:00;;;;;;;32.30;15.65;;;4.40;99.90;;;;;;5053685;28;20194;-63
2020/12/29 02:42:26;;;;;;;32.60;14.50;;;4.40;99.90;;;;;;5053696;28;20171;-64
2020/12/29 02:44:52;;;;;;;34.38;14.80;;;4.40;99.90;;;;;;5051524;28;20171;-64
2020/12/29 02:47:19;;;;;;;33.15;15.00;;;4.40;99.90;;;;;;5053149;28;20170;-64
2020/12/29 02:49:45;;;;;;;34.90;16.23;;;4.40;99.90;;;;;;5053241;28;20650;-64
2020/12/29 02:52:11;;;;;;;31.55;15.20;;;4.40;99.90;;;;;;5051155;28;20666;-64
2020/12/29 02:54:37;;;;;;;31.08;14.38;;;4.40;99.90;;;;;;5053497;28;20201;-64
2020/12/29 02:57:03;;;;;;;32.38;14.38;;;4.40;99.90;;;;;;5052409;28;20210;-64
2020/12/29 02:59:30;;;;;;;34.30;14.98;;;4.50;99.90;;;;;;5052753;28;20183;-64
2020/12/29 03:01:57;;;;;;;35.00;14.63;;;4.40;99.90;;;;;;5052297;28;20653;-64
2020/12/29 03:04:23;;;;;;;33.30;14.45;;;4.40;99.90;;;;;;5053049;28;20174;-64
2020/12/29 03:06:49;;;;;;;32.78;15.30;;;4.40;99.90;;;;;;5053229;28;20190;-63
2020/12/29 03:09:15;;;;;;;33.92;15.18;;;4.40;99.90;;;;;;5053090;28;20175;-64
2020/12/29 03:11:43;;;;;;;31.35;14.95;;;4.40;99.90;;;;;;5051460;28;20503;-64
2020/12/29 03:14:09;;;;;;;29.40;14.95;;;4.40;99.90;;;;;;5052532;28;20183;-64
2020/12/29 03:16:36;;;;;;;37.85;16.00;;;4.40;99.90;;;;;;5052543;28;20539;-64
2020/12/29 03:19:02;;;;;;;35.35;14.70;;;4.40;99.90;;;;;;5052300;28;20182;-64
2020/12/29 03:21:28;;;;;;;35.83;15.73;;;4.40;99.90;;;;;;5052700;28;20167;-64
2020/12/29 03:23:55;;;;;;;35.28;15.50;;;4.40;99.90;;;;;;5052618;28;20272;-64
2020/12/29 03:26:22;;;;;;;33.75;16.23;;;4.40;99.90;;;;;;5051814;28;20191;-64
2020/12/29 03:28:48;;;;;;;33.05;15.48;;;4.40;99.90;;;;;;5052042;28;20635;-64
2020/12/29 03:31:15;;;;;;;33.35;14.65;;;4.40;99.90;;;;;;5051617;28;20193;-64
2020/12/29 03:33:42;;;;;;;34.15;15.20;;;4.40;99.90;;;;;;5052524;28;20186;-64
2020/12/29 03:36:08;;;;;;;36.33;15.07;;;4.40;99.90;;;;;;5052053;28;20195;-64
2020/12/29 03:38:34;;;;;;;37.65;15.15;;;4.40;99.90;;;;;;5052365;28;20219;-64
2020/12/29 03:41:00;;;;;;;35.72;14.75;;;4.40;99.90;;;;;;5051818;28;20181;-64
2020/12/29 03:43:26;;;;;;;27.40;13.05;;;4.40;99.90;;;;;;5052274;28;20540;-64
2020/12/29 03:45:52;;;;;;;34.45;14.70;;;4.40;99.90;;;;;;5051668;28;20189;-64
2020/12/29 03:48:20;;;;;;;29.05;13.82;;;4.40;99.90;;;;;;5051728;28;20182;-64
2020/12/29 03:50:47;;;;;;;27.70;12.90;;;4.30;99.90;;;;;;5052443;28;20193;-64
2020/12/29 03:53:13;;;;;;;33.10;15.27;;;4.40;99.90;;;;;;5051732;28;20183;-64
2020/12/29 03:55:39;;;;;;;32.15;14.95;;;4.40;99.90;;;;;;5051681;28;20206;-65
2020/12/29 03:58:05;;;;;;;30.02;14.32;;;4.30;99.90;;;;;;5051183;28;20195;-64
2020/12/29 04:00:32;;;;;;;27.70;13.95;;;4.30;99.90;;;;;;5051479;28;20186;-64
2020/12/29 04:02:58;;;;;;;31.35;14.45;;;4.30;99.90;;;;;;5051527;28;20190;-64
2020/12/29 04:05:25;;;;;;;30.35;13.80;;;4.30;99.90;;;;;;5051734;28;20179;-64
2020/12/29 04:07:52;;;;;;;31.75;14.52;;;4.30;99.90;;;;;;5051362;28;20178;-64
2020/12/29 04:10:18;;;;;;;30.90;14.55;;;4.30;99.90;;;;;;5050564;28;20185;-65
2020/12/29 04:12:44;;;;;;;28.10;13.02;;;4.30;99.90;;;;;;5051766;28;20189;-65
2020/12/29 04:15:10;;;;;;;31.33;14.38;;;4.30;99.90;;;;;;5051583;28;20178;-64
2020/12/29 04:17:40;;;;;;;30.33;14.30;;;4.30;99.90;;;;;;5051775;28;20207;-64
2020/12/29 04:20:08;;;;;;;32.67;13.68;;;4.30;99.90;;;;;;5051282;28;20189;-64
2020/12/29 04:22:35;;;;;;;31.63;16.20;;;4.30;99.90;;;;;;5049916;28;20399;-64
2020/12/29 04:25:01;;;;;;;29.67;15.93;;;4.30;99.90;;;;;;5049806;28;20411;-64
2020/12/29 04:27:27;;;;;;;28.63;10.55;;;4.30;99.90;;;;;;5051808;28;20170;-64
2020/12/29 04:29:53;;;;;;;17.30;8.20;;;4.30;99.90;;;;;;5051776;28;20232;-64
2020/12/29 04:32:19;;;;;;;19.25;8.18;;;4.30;99.90;;;;;;5050510;28;20182;-64
2020/12/29 04:34:46;;;;;;;30.60;12.23;;;4.30;99.90;;;;;;5051180;28;20197;-64
2020/12/29 04:37:15;;;;;;;23.60;11.88;;;4.20;99.90;;;;;;5051020;28;20206;-64
2020/12/29 04:39:42;;;;;;;25.80;12.20;;;4.30;99.90;;;;;;5051413;28;20185;-64
2020/12/29 04:42:12;;;;;;;32.30;12.15;;;4.30;99.90;;;;;;5051080;28;20185;-64
2020/12/29 04:44:39;;;;;;;26.05;12.18;;;4.30;99.90;;;;;;5051545;28;20649;-64
2020/12/29 04:47:09;;;;;;;27.42;13.13;;;4.30;99.90;;;;;;5050216;28;20183;-64
2020/12/29 04:49:36;;;;;;;28.25;12.13;;;4.30;99.90;;;;;;5051372;28;20177;-64
2020/12/29 04:52:06;;;;;;;27.67;12.18;;;4.30;99.90;;;;;;5051223;28;20175;-64
2020/12/29 04:54:36;;;;;;;26.80;11.88;;;4.30;99.90;;;;;;5049766;28;20654;-64
2020/12/29 04:57:03;;;;;;;25.80;12.95;;;4.30;99.90;;;;;;5049434;28;20206;-64
2020/12/29 04:59:29;;;;;;;23.77;11.35;;;4.30;99.90;;;;;;5051035;28;20179;-64
2020/12/29 05:01:56;;;;;;;25.60;12.25;;;4.30;99.90;;;;;;5050749;28;20186;-64
2020/12/29 05:04:23;;;;;;;27.02;12.57;;;4.30;99.90;;;;;;5051560;28;20186;-63
2020/12/29 05:06:50;;;;;;;22.67;11.40;;;4.30;99.90;;;;;;5051969;28;20245;-64
2020/12/29 05:09:20;;;;;;;23.90;12.07;;;4.30;99.90;;;;;;5053968;28;20186;-63
2020/12/29 05:11:46;;;;;;;24.10;10.93;;;4.30;99.90;;;;;;5054869;28;20173;-64
2020/12/29 05:14:12;;;;;;;26.63;12.23;;;4.30;99.90;;;;;;5054806;28;20178;-63
2020/12/29 05:16:42;;;;;;;26.33;12.27;;;4.30;99.90;;;;;;5053731;28;20658;-64
2020/12/29 05:19:15;;;;;;;25.40;12.07;;;4.30;99.90;;;;;;5053122;28;20225;-64
2020/12/29 05:21:42;;;;;;;23.42;11.73;;;4.30;99.90;;;;;;5054739;28;20523;-64
2020/12/29 05:24:14;;;;;;;25.25;11.70;;;4.40;99.90;;;;;;5054916;28;20250;-64
2020/12/29 05:26:41;;;;;;;28.75;13.48;;;4.30;99.90;;;;;;5054882;28;20178;-64
2020/12/29 05:29:11;;;;;;;26.13;12.02;;;4.30;99.90;;;;;;5054820;28;20182;-64
2020/12/29 05:31:37;;;;;;;25.40;12.60;;;4.30;99.90;;;;;;5054514;28;20175;-64
2020/12/29 05:34:04;;;;;;;24.85;12.35;;;4.30;99.90;;;;;;5054346;28;20213;-64
2020/12/29 05:36:37;;;;;;;24.77;12.57;;;4.30;99.90;;;;;;5054632;28;20170;-64
2020/12/29 05:39:05;;;;;;;30.10;13.77;;;4.30;99.90;;;;;;5054495;28;20209;-64
2020/12/29 05:41:36;;;;;;;31.92;14.52;;;4.30;99.90;;;;;;5054437;28;20185;-64
2020/12/29 05:44:02;;;;;;;29.55;14.13;;;4.30;99.90;;;;;;5053829;28;20163;-63
2020/12/29 05:46:29;;;;;;;29.85;13.68;;;4.30;99.90;;;;;;5054353;28;20174;-63
2020/12/29 05:48:56;;;;;;;29.30;14.43;;;4.30;99.90;;;;;;5053144;28;20187;-63
2020/12/29 05:51:23;;;;;;;31.17;14.57;;;4.30;99.90;;;;;;5053669;28;20510;-63
2020/12/29 05:53:49;;;;;;;32.15;14.38;;;4.30;99.90;;;;;;5054436;28;20174;-63
2020/12/29 05:56:15;;;;;;;29.98;13.82;;;4.30;99.90;;;;;;5052296;28;20174;-63
2020/12/29 05:58:42;;;;;;;32.25;14.70;;;4.30;99.90;;;;;;5053038;28;20209;-63
2020/12/29 06:01:08;;;;;;;29.45;14.57;;;4.30;99.90;;;;;;5054158;28;20174;-63
2020/12/29 06:03:35;;;;;;;29.98;14.57;;;4.30;99.90;;;;;;5054470;28;20190;-64
2020/12/29 06:06:03;;;;;;;33.58;14.25;;;4.30;99.90;;;;;;5036919;28;20167;-64
2020/12/29 06:08:29;;;;;;;30.75;14.75;;;4.30;99.90;;;;;;5053239;28;20171;-64
2020/12/29 06:11:03;;;;;;;29.75;15.10;;;4.40;99.90;;;;;;5036866;28;20174;-63
2020/12/29 06:13:32;;;;;;;28.75;14.40;;;4.30;99.90;;;;;;5053350;28;20165;-63
2020/12/29 06:15:58;;;;;;;31.23;15.50;;;4.30;99.90;;;;;;5036483;28;20187;-64
2020/12/29 06:18:37;;;;;;;30.58;14.55;;;4.30;99.90;;;;;;5036022;28;20194;-64
2020/12/29 06:21:07;;;;;;;32.38;14.73;;;4.30;99.90;;;;;;5053737;28;20284;-64
2020/12/29 06:23:45;;;;;;;34.17;15.80;;;4.30;99.90;;;;;;5053952;28;20205;-63
2020/12/29 06:26:17;;;;;;;37.08;15.27;;;4.30;99.90;;;;;;5053941;28;20159;-64
2020/12/29 06:28:50;;;;;;;32.65;15.63;;;4.30;99.90;;;;;;5053124;28;20674;-64
2020/12/29 06:31:29;;;;;;;34.47;15.57;;;4.30;99.90;;;;;;5053832;28;20205;-64
2020/12/29 06:33:58;;;;;;;34.00;15.75;;;4.30;99.90;;;;;;5054004;28;20220;-65
2020/12/29 06:36:26;;;;;;;33.70;16.20;;;4.30;99.90;;;;;;5053752;28;20182;-64
2020/12/29 06:38:52;;;;;;;35.78;16.10;;;4.30;99.90;;;;;;5052482;28;20198;-65
2020/12/29 06:41:19;;;;;;;32.75;15.45;;;4.30;99.90;;;;;;5035180;28;20190;-64
2020/12/29 06:43:46;;;;;;;34.08;16.02;;;4.30;99.90;;;;;;5052392;28;20183;-64
2020/12/29 06:46:12;;;;;;;33.45;15.15;;;4.30;99.90;;;;;;5053500;28;20166;-63
2020/12/29 06:48:39;;;;;;;35.67;16.52;;;4.30;99.90;;;;;;5052278;28;20190;-63
2020/12/29 06:51:12;;;;;;;40.38;16.60;;;4.30;99.90;;;;;;5052157;28;20191;-63
2020/12/29 06:53:42;;;;;;;38.95;17.67;;;4.30;99.90;;;;;;5052437;28;20182;-63
2020/12/29 06:56:15;;;;;;;38.08;17.13;;;4.30;99.90;;;;;;5052814;28;20181;-63
2020/12/29 06:58:41;;;;;;;39.67;17.77;;;4.30;99.90;;;;;;5053328;28;20218;-63
2020/12/29 07:01:26;;;;;;;40.85;16.90;;;4.30;99.90;;;;;;5052258;28;20174;-63
2020/12/29 07:04:05;;;;;;;39.88;17.95;;;4.10;99.90;;;;;;5057251;28;20163;-63
2020/12/29 07:06:32;;;;;;;38.65;16.35;;;4.10;99.90;;;;;;5058141;28;20201;-63
2020/12/29 07:09:01;;;;;;;38.55;17.60;;;4.00;99.90;;;;;;5053020;28;20186;-63
2020/12/29 07:11:28;;;;;;;40.88;17.65;;;4.00;99.90;;;;;;5052040;28;20175;-63
2020/12/29 07:13:54;;;;;;;39.85;18.23;;;4.00;99.90;;;;;;5046603;28;20560;-64
2020/12/29 07:16:24;;;;;;;41.53;17.35;;;4.00;99.90;;;;;;5052665;28;20190;-63
2020/12/29 07:18:50;;;;;;;40.15;17.73;;;4.00;99.90;;;;;;5052275;28;20220;-63
2020/12/29 07:21:26;;;;;;;40.95;17.48;;;4.00;99.90;;;;;;5051605;28;20170;-64
2020/12/29 07:23:53;;;;;;;44.53;17.67;;;4.00;99.90;;;;;;5052435;28;20221;-64
2020/12/29 07:26:20;;;;;;;35.03;16.08;;;4.00;99.90;;;;;;5051912;28;20170;-64
2020/12/29 07:28:49;;;;;;;44.75;17.67;;;4.00;99.90;;;;;;5052016;28;20619;-64
2020/12/29 07:31:15;;;;;;;45.23;21.37;;;4.00;99.90;;;;;;5051504;28;20745;-64
2020/12/29 07:33:53;;;;;;;50.58;18.65;;;4.00;99.90;;;;;;5052416;28;20538;-64
2020/12/29 07:36:23;;;;;;;38.25;16.52;;;4.00;99.90;;;;;;5051210;28;20185;-64
2020/12/29 07:38:49;;;;;;;35.95;17.17;;;4.00;99.90;;;;;;5051488;28;20734;-64
2020/12/29 07:41:19;;;;;;;33.63;16.42;;;4.00;99.90;;;;;;5052363;28;20201;-63
2020/12/29 07:43:48;;;;;;;40.40;18.75;;;4.10;99.90;;;;;;5051461;28;20179;-64
2020/12/29 07:46:14;;;;;;;40.55;18.42;;;4.00;99.90;;;;;;5052508;28;20166;-64
2020/12/29 07:48:40;;;;;;;40.60;17.83;;;4.00;99.90;;;;;;5052567;28;20174;-64
2020/12/29 07:51:07;;;;;;;42.25;18.42;;;4.00;99.90;;;;;;5052626;28;20187;-63
2020/12/29 07:53:33;;;;;;;46.53;19.02;;;4.00;99.90;;;;;;5052346;28;20174;-64
2020/12/29 07:55:59;;;;;;;42.25;19.30;;;4.00;99.90;;;;;;5050656;28;20182;-63
2020/12/29 07:58:25;;;;;;;39.90;18.40;;;4.10;99.90;;;;;;5052080;28;20658;-64
2020/12/29 08:00:51;;;;;;;41.58;18.27;;;4.10;99.90;;;;;;5052438;28;20179;-64
2020/12/29 08:03:18;;;;;;;44.47;19.30;;;4.10;99.90;;;;;;5050415;28;20191;-64
2020/12/29 08:05:45;;;;;;;45.13;21.67;;;4.00;99.90;;;;;;5051327;28;20383;-65
2020/12/29 08:08:12;;;;;;;42.67;18.75;;;4.00;99.90;;;;;;5052277;28;20246;-65
2020/12/29 08:10:42;;;;;;;44.35;18.85;;;4.00;99.90;;;;;;5052290;28;20182;-64
2020/12/29 08:13:10;;;;;;;39.03;17.75;;;4.00;99.90;;;;;;5052286;28;20163;-64
2020/12/29 08:15:37;;;;;;;36.50;17.42;;;4.10;99.90;;;;;;5052117;28;20170;-64
2020/12/29 08:18:04;;;;;;;43.10;18.30;;;4.00;99.90;;;;;;5051915;28;20198;-65
2020/12/29 08:20:30;;;;;;;41.00;18.35;;;4.10;99.90;;;;;;5055497;28;20504;-64
2020/12/29 08:23:02;;;;;;;42.42;18.52;;;4.10;99.90;;;;;;5051578;28;20274;-65
2020/12/29 08:25:30;;;;;;;37.55;17.67;;;4.00;99.90;;;;;;5051627;28;20210;-65
2020/12/29 08:28:01;;;;;;;41.83;18.08;;;4.00;99.90;;;;;;5061094;28;20180;-64
2020/12/29 08:30:27;;;;;;;39.47;17.80;;;4.10;99.90;;;;;;5032618;28;20184;-65
2020/12/29 08:32:54;;;;;;;42.22;19.67;;;4.10;99.90;;;;;;5049810;28;20174;-64
2020/12/29 08:35:20;;;;;;;42.67;17.95;;;4.10;99.90;;;;;;5032935;28;20194;-64
2020/12/29 08:38:06;;;;;;;42.67;18.60;;;4.10;99.90;;;;;;5049762;28;20615;-64
2020/12/29 08:40:33;;;;;;;38.85;17.92;;;4.10;99.90;;;;;;5051493;28;20204;-65
2020/12/29 08:43:00;;;;;;;42.38;18.75;;;4.10;99.90;;;;;;5054422;28;20181;-64
2020/12/29 08:45:27;;;;;;;41.50;18.80;;;4.10;99.90;;;;;;5054166;28;20171;-64
2020/12/29 08:47:57;;;;;;;41.97;18.73;;;4.10;99.90;;;;;;5052974;28;20175;-64
2020/12/29 08:50:34;;;;;;;46.78;18.30;;;4.10;99.90;;;;;;5056036;28;20179;-66
2020/12/29 08:53:07;;;;;;;38.63;17.75;;;4.10;99.90;;;;;;5061905;28;20158;-65
2020/12/29 08:55:34;;;;;;;41.20;18.67;;;4.10;99.90;;;;;;5061777;28;20514;-65
2020/12/29 08:58:01;;;;;;;45.65;18.83;;;4.10;99.90;;;;;;5052391;28;20202;-65
2020/12/29 09:00:29;;;;;;;41.80;18.45;;;4.10;99.90;;;;;;5054480;28;20621;-65
2020/12/29 09:02:55;;;;;;;43.08;19.70;;;4.10;99.90;;;;;;5055649;28;20657;-65
2020/12/29 09:05:23;;;;;;;42.15;20.20;;;4.10;99.90;;;;;;5055468;28;20178;-65
2020/12/29 09:07:49;;;;;;;43.28;17.88;;;4.10;99.90;;;;;;5055816;28;20175;-65
2020/12/29 09:10:16;;;;;;;36.58;17.00;;;4.10;99.90;;;;;;5055345;28;20175;-64
2020/12/29 09:12:42;;;;;;;44.13;19.02;;;4.10;99.90;;;;;;5055717;28;20170;-64
2020/12/29 09:15:24;;;;;;;44.15;18.73;;;4.10;99.90;;;;;;5055500;28;20173;-64
2020/12/29 09:18:00;;;;;;;38.83;17.15;;;4.10;99.90;;;;;;5049081;28;20177;-64
2020/12/29 09:20:29;;;;;;;38.10;17.55;;;4.10;99.90;;;;;;5040812;28;20170;-63
2020/12/29 09:23:03;;;;;;;41.75;18.83;;;4.10;99.90;;;;;;5048118;28;20190;-63
2020/12/29 09:25:31;;;;;;;44.78;18.85;;;4.10;99.90;;;;;;5054451;28;20244;-64
2020/12/29 09:28:16;;;;;;;37.95;18.05;;;4.10;99.90;;;;;;5055008;28;20237;-64
2020/12/29 09:31:10;;;;;;;42.03;17.52;;;4.10;99.90;;;;;;5055427;28;20197;-64
2020/12/29 09:33:37;;;;;;;37.47;16.50;;;4.10;99.90;;;;;;5053799;28;20155;-64
2020/12/29 09:36:06;;;;;;;40.50;17.15;;;4.20;99.90;;;;;;5053829;28;20182;-64
2020/12/29 09:38:33;;;;;;;35.00;17.15;;;4.10;99.90;;;;;;5054674;28;20198;-64
2020/12/29 09:40:59;;;;;;;38.47;16.77;;;4.20;99.90;;;;;;5053786;28;20175;-65
2020/12/29 09:43:26;;;;;;;46.78;17.77;;;4.20;99.90;;;;;;5053487;28;20194;-65
2020/12/29 09:45:52;;;;;;;36.72;18.50;;;4.20;99.90;;;;;;5051729;28;20748;-65
2020/12/29 09:48:18;;;;;;;34.58;15.73;;;4.20;99.90;;;;;;5054288;28;20178;-65
2020/12/29 09:50:45;;;;;;;29.88;14.88;;;4.30;99.90;;;;;;5049389;28;20198;-66
2020/12/29 09:53:11;;;;;;;29.35;13.60;;;4.30;99.90;;;;;;5016581;28;20186;-64
2020/12/29 09:55:38;;;;;;;33.60;16.52;;;4.30;99.90;;;;;;5042381;28;20566;-65
2020/12/29 09:58:04;;;;;;;26.42;11.25;;;4.40;99.90;;;;;;5051391;28;20205;-65
2020/12/29 10:00:30;;;;;;;33.70;17.98;;;4.40;99.90;;;;;;5050787;28;20399;-65
2020/12/29 10:03:01;;;;;;;32.53;17.50;;;4.40;99.90;;;;;;5014435;28;20885;-65
2020/12/29 10:05:27;;;;;;;24.88;11.95;;;4.40;99.90;;;;;;5049073;28;20174;-64
2020/12/29 10:07:53;;;;;;;28.73;15.80;;;4.40;99.90;;;;;;5052030;28;20449;-65
2020/12/29 10:10:20;;;;;;;25.73;10.23;;;4.40;99.90;;;;;;5053537;28;20170;-65
2020/12/29 10:12:46;;;;;;;28.70;13.90;;;4.50;99.90;;;;;;5054397;28;20174;-64
2020/12/29 10:15:12;;;;;;;30.45;13.50;;;4.50;99.90;;;;;;5052933;28;20622;-64
2020/12/29 10:17:38;;;;;;;34.28;16.45;;;4.50;99.90;;;;;;5052250;28;20890;-64
2020/12/29 10:20:05;;;;;;;28.90;9.80;;;4.50;99.90;;;;;;5053961;28;20670;-64
2020/12/29 10:22:31;;;;;;;20.30;8.85;;;4.50;99.90;;;;;;5053722;28;20233;-64
2020/12/29 10:24:57;;;;;;;20.80;9.27;;;4.50;99.90;;;;;;5053967;28;20229;-64
2020/12/29 10:27:24;;;;;;;21.58;9.43;;;4.50;99.90;;;;;;5054080;28;20186;-63
2020/12/29 10:29:50;;;;;;;28.25;13.27;;;4.60;99.90;;;;;;5051567;28;20285;-64
2020/12/29 10:32:20;;;;;;;23.48;12.57;;;4.60;99.90;;;;;;5052448;28;20175;-64
2020/12/29 10:34:49;;;;;;;30.60;14.02;;;4.70;99.90;;;;;;5053363;28;20198;-64
2020/12/29 10:37:15;;;;;;;27.77;14.45;;;4.60;99.90;;;;;;5052779;28;20194;-64
2020/12/29 10:39:42;;;;;;;29.23;14.68;;;4.70;99.90;;;;;;5053544;28;20194;-65
2020/12/29 10:42:08;;;;;;;31.13;13.45;;;4.70;99.90;;;;;;5052664;28;20170;-64
2020/12/29 10:44:34;;;;;;;30.70;14.38;;;4.70;99.90;;;;;;5053377;28;20186;-64
2020/12/29 10:47:00;;;;;;;30.45;14.50;;;4.70;99.90;;;;;;5052512;28;20182;-64
2020/12/29 10:49:26;;;;;;;335.80;166.20;;;4.70;99.90;;;;;;5053153;28;20542;-64
2020/12/29 10:51:53;;;;;;;44.25;23.60;;;4.70;99.90;;;;;;5052355;28;20372;-64
2020/12/29 10:54:19;;;;;;;60.05;30.83;;;4.80;99.90;;;;;;5053252;28;20182;-64
2020/12/29 10:56:45;;;;;;;52.83;21.67;;;4.80;99.90;;;;;;5053075;28;20174;-64
2020/12/29 10:59:12;;;;;;;182.32;110.13;;;4.90;99.90;;;;;;5051921;28;20269;-64
2020/12/29 11:01:38;;;;;;;97.85;52.58;;;4.80;99.90;;;;;;5056534;28;20174;-64
2020/12/29 11:04:04;;;;;;;54.45;29.17;;;4.90;99.90;;;;;;5067695;28;20181;-65
2020/12/29 11:06:31;;;;;;;66.18;36.78;;;4.80;99.90;;;;;;5067260;28;20169;-65
2020/12/29 11:08:57;;;;;;;32.17;16.10;;;4.80;99.90;;;;;;5056645;28;20179;-64
2020/12/29 11:11:24;;;;;;;273.70;147.60;;;4.80;99.90;;;;;;5024462;28;20193;-67
2020/12/29 11:13:50;;;;;;;59.17;33.70;;;4.80;99.90;;;;;;5059744;28;20191;-65
2020/12/29 11:16:19;;;;;;;51.60;23.95;;;4.80;99.90;;;;;;5049397;28;20273;-64
2020/12/29 11:18:46;;;;;;;43.90;22.13;;;4.80;99.90;;;;;;5051352;28;20201;-66
2020/12/29 11:21:16;;;;;;;31.40;15.45;;;4.80;99.90;;;;;;5059397;28;20193;-65
2020/12/29 11:23:42;;;;;;;32.47;17.50;;;4.80;99.90;;;;;;5056613;28;20658;-65
2020/12/29 11:26:09;;;;;;;33.92;16.90;;;4.80;99.90;;;;;;5059385;28;20198;-65
2020/12/29 11:28:35;;;;;;;54.10;28.13;;;4.90;99.90;;;;;;5053789;28;20983;-65
2020/12/29 11:31:01;;;;;;;42.72;22.15;;;4.90;99.90;;;;;;5059711;28;20178;-65
2020/12/29 11:33:27;;;;;;;36.28;19.83;;;4.90;99.90;;;;;;5058229;28;20201;-65
2020/12/29 11:35:53;;;;;;;43.70;24.85;;;4.90;99.90;;;;;;5064237;28;20182;-65
2020/12/29 11:38:22;;;;;;;91.32;46.88;;;4.90;99.90;;;;;;5052912;28;20194;-65
2020/12/29 11:40:49;;;;;;;271.83;152.05;;;4.90;99.90;;;;;;5069301;28;20530;-65
2020/12/29 11:43:15;;;;;;;58.92;30.23;;;4.90;99.90;;;;;;5060386;28;20605;-65
2020/12/29 11:45:44;;;;;;;92.22;52.63;;;5.00;99.90;;;;;;5059719;28;20391;-65
2020/12/29 11:48:10;;;;;;;37.85;25.23;;;5.00;99.90;;;;;;5059745;28;20400;-65
2020/12/29 11:50:37;;;;;;;25.05;14.60;;;5.00;99.90;;;;;;5050091;28;20384;-65
2020/12/29 11:53:03;;;;;;;35.85;23.25;;;5.00;99.90;;;;;;5060481;28;20390;-66
2020/12/29 11:55:29;;;;;;;30.83;18.85;;;5.00;99.90;;;;;;5064729;28;20408;-66
2020/12/29 11:57:55;;;;;;;30.67;19.45;;;5.10;99.90;;;;;;5066073;28;20367;-66
2020/12/29 12:00:21;;;;;;;57.00;36.35;;;5.10;99.90;;;;;;5067865;28;20206;-66
2020/12/29 12:02:48;;;;;;;27.58;15.02;;;5.00;99.90;;;;;;5067544;28;20167;-65
2020/12/29 12:05:14;;;;;;;44.63;24.73;;;5.00;99.90;;;;;;5066664;28;20181;-66
2020/12/29 12:07:40;;;;;;;37.53;17.70;;;5.00;99.90;;;;;;5062106;28;20238;-66
2020/12/29 12:10:07;;;;;;;29.10;15.82;;;5.00;99.90;;;;;;5051866;28;20190;-65
2020/12/29 12:12:33;;;;;;;43.00;23.98;;;5.00;99.90;;;;;;5050470;28;20174;-65
2020/12/29 12:14:59;;;;;;;41.92;22.92;;;5.00;99.90;;;;;;5065245;28;20185;-65
2020/12/29 12:17:25;;;;;;;30.80;16.30;;;5.00;99.90;;;;;;5056135;28;20190;-65
2020/12/29 12:19:51;;;;;;;41.65;18.77;;;4.90;99.90;;;;;;5050611;28;20217;-65
2020/12/29 12:22:18;;;;;;;32.40;16.83;;;4.90;99.90;;;;;;5050791;28;20186;-65
2020/12/29 12:24:44;;;;;;;27.85;12.77;;;4.90;99.90;;;;;;5050608;28;20222;-65
2020/12/29 12:27:11;;;;;;;29.00;14.55;;;4.80;99.90;;;;;;5049349;28;20197;-65
2020/12/29 12:29:37;;;;;;;76.88;43.53;;;4.90;99.90;;;;;;5045302;28;20166;-65
2020/12/29 12:32:03;;;;;;;98.00;55.75;;;4.90;99.90;;;;;;5050317;28;20189;-66
2020/12/29 12:34:30;;;;;;;32.03;15.98;;;4.80;99.90;;;;;;5050705;28;20209;-66
2020/12/29 12:36:56;;;;;;;47.63;32.00;;;4.80;99.90;;;;;;5053758;28;20529;-65